createdAt,value
2022-12-31T00:00:52.278Z,87.78
2022-12-31T00:03:23.856Z,87.70
2022-12-31T00:05:59.606Z,87.65
2022-12-31T00:08:30.580Z,87.46
2022-12-31T00:11:07.950Z,87.43
2022-12-31T00:13:41.530Z,87.55
2022-12-31T00:16:30.826Z,87.26
2022-12-31T00:19:01.308Z,86.74
2022-12-31T00:21:33.337Z,86.74
2022-12-31T00:24:17.710Z,86.85
2022-12-31T00:26:55.205Z,86.89
2022-12-31T00:29:27.543Z,87.06
2022-12-31T00:32:07.968Z,87.13
2022-12-31T00:34:46.619Z,87.04
2022-12-31T00:37:13.796Z,87.14
2022-12-31T00:39:46.582Z,87.37
2022-12-31T00:42:16.535Z,87.86
2022-12-31T00:44:43.767Z,87.99
2022-12-31T00:47:13.421Z,88.03
2022-12-31T00:49:47.895Z,88.18
2022-12-31T00:52:45.350Z,88.12
2022-12-31T00:55:17.780Z,88.21
2022-12-31T00:57:53.185Z,88.26
2022-12-31T01:00:37.533Z,88.22
2022-12-31T01:03:12.173Z,88.29
2022-12-31T01:05:47.040Z,88.26
2022-12-31T01:08:25.243Z,88.34
2022-12-31T01:11:14.069Z,87.95
2022-12-31T01:13:45.694Z,88.15
2022-12-31T01:16:14.712Z,88.21
2022-12-31T01:18:42.143Z,87.90
2022-12-31T01:21:13.272Z,88.11
2022-12-31T01:23:42.823Z,88.13
2022-12-31T01:26:23.447Z,88.25
2022-12-31T01:28:54.528Z,87.93
2022-12-31T01:31:30.255Z,88.14
2022-12-31T01:34:08.366Z,88.24
2022-12-31T01:36:47.468Z,88.23
2022-12-31T01:39:26.537Z,88.03
2022-12-31T01:42:13.978Z,88.13
2022-12-31T01:44:52.989Z,88.03
2022-12-31T01:47:39.403Z,87.97
2022-12-31T01:50:33.080Z,87.67
2022-12-31T01:53:20.993Z,87.79
2022-12-31T01:56:03.368Z,87.51
2022-12-31T01:58:45.802Z,87.27
2022-12-31T02:01:28.809Z,86.94
2022-12-31T02:04:01.258Z,86.99
2022-12-31T02:06:49.480Z,87.06
2022-12-31T02:09:25.960Z,86.88
2022-12-31T02:11:55.288Z,86.82
2022-12-31T02:14:43.743Z,87.02
2022-12-31T02:17:16.637Z,87.00
2022-12-31T02:20:13.659Z,87.46
2022-12-31T02:23:21.034Z,87.85
2022-12-31T02:26:24.875Z,88.00
2022-12-31T02:29:31.902Z,88.25
2022-12-31T02:32:06.848Z,88.45
2022-12-31T02:34:38.157Z,88.41
2022-12-31T02:37:27.215Z,87.99
2022-12-31T02:40:04.698Z,87.52
2022-12-31T02:42:45.593Z,87.44
2022-12-31T02:45:25.688Z,87.62
2022-12-31T02:48:28.817Z,87.42
2022-12-31T02:51:01.148Z,87.18
2022-12-31T02:53:43.302Z,86.92
2022-12-31T02:56:27.555Z,86.86
2022-12-31T02:59:30.091Z,87.08
2022-12-31T03:02:17.573Z,87.30
2022-12-31T03:05:11.258Z,86.75
2022-12-31T03:07:48.225Z,86.91
2022-12-31T03:10:15.530Z,86.95
2022-12-31T03:12:47.774Z,87.06
2022-12-31T03:15:23.444Z,87.03
2022-12-31T03:18:16.474Z,87.27
2022-12-31T03:21:11.400Z,87.51
2022-12-31T03:24:04.569Z,87.59
2022-12-31T03:26:35.827Z,87.79
2022-12-31T03:29:05.784Z,87.88
2022-12-31T03:31:35.623Z,87.93
2022-12-31T03:34:12.707Z,87.97
2022-12-31T03:36:47.249Z,88.30
2022-12-31T03:39:19.081Z,88.16
2022-12-31T03:41:53.363Z,88.33
2022-12-31T03:44:27.949Z,88.51
2022-12-31T03:46:55.115Z,88.41
2022-12-31T03:49:30.044Z,88.64
2022-12-31T03:52:04.771Z,88.57
2022-12-31T03:54:43.613Z,88.84
2022-12-31T03:57:19.019Z,88.89
2022-12-31T03:59:46.156Z,88.96
2022-12-31T04:02:15.273Z,89.04
2022-12-31T04:04:51.346Z,88.89
2022-12-31T04:07:21.624Z,89.22
2022-12-31T04:09:49.636Z,89.21
2022-12-31T04:12:25.812Z,89.08
2022-12-31T04:14:55.337Z,89.07
2022-12-31T04:17:22.493Z,90.16
2022-12-31T04:20:01.277Z,90.28
2022-12-31T04:22:36.260Z,90.85
2022-12-31T04:25:08.687Z,90.93
2022-12-31T04:27:46.154Z,91.36
2022-12-31T04:30:33.278Z,91.23
2022-12-31T04:33:15.827Z,91.06
2022-12-31T04:35:51.114Z,90.87
2022-12-31T04:38:33.445Z,90.98
2022-12-31T04:41:22.516Z,91.39
2022-12-31T04:43:51.921Z,91.05
2022-12-31T04:46:37.061Z,91.23
2022-12-31T04:49:06.893Z,91.52
2022-12-31T04:51:39.310Z,91.66
2022-12-31T04:54:23.166Z,91.51
2022-12-31T04:57:05.621Z,91.45
2022-12-31T04:59:41.233Z,91.49
2022-12-31T05:02:11.000Z,91.59
2022-12-31T05:04:44.639Z,91.35
2022-12-31T05:07:15.063Z,91.22
2022-12-31T05:10:05.642Z,91.45
2022-12-31T05:12:36.547Z,91.31
2022-12-31T05:15:08.836Z,91.23
2022-12-31T05:17:40.246Z,91.13
2022-12-31T05:20:17.908Z,91.08
2022-12-31T05:22:50.292Z,91.10
2022-12-31T05:25:17.458Z,90.98
2022-12-31T05:27:54.666Z,90.95
2022-12-31T05:30:26.219Z,91.01
2022-12-31T05:32:59.626Z,90.60
2022-12-31T05:35:29.333Z,91.32
2022-12-31T05:38:02.262Z,91.64
2022-12-31T05:40:38.115Z,92.03
2022-12-31T05:43:10.899Z,91.84
2022-12-31T05:45:39.283Z,91.87
2022-12-31T05:48:09.808Z,92.13
2022-12-31T05:50:56.636Z,91.86
2022-12-31T05:53:34.377Z,91.60
2022-12-31T06:00:34.168Z,91.65
2022-12-31T06:03:08.273Z,91.40
2022-12-31T06:05:42.774Z,91.59
2022-12-31T06:08:14.232Z,92.27
2022-12-31T06:10:43.941Z,92.52
2022-12-31T06:13:13.805Z,92.95
2022-12-31T06:15:45.410Z,93.34
2022-12-31T06:18:15.976Z,92.87
2022-12-31T06:20:49.338Z,92.91
2022-12-31T06:23:22.795Z,91.93
2022-12-31T06:25:54.710Z,91.62
2022-12-31T06:28:34.851Z,91.37
2022-12-31T06:31:17.168Z,92.18
2022-12-31T06:33:49.026Z,91.81
2022-12-31T06:36:19.293Z,92.20
2022-12-31T06:39:10.122Z,92.15
2022-12-31T06:41:37.942Z,91.77
2022-12-31T06:44:16.579Z,91.44
2022-12-31T06:46:56.884Z,90.99
2022-12-31T06:49:33.993Z,91.12
2022-12-31T06:52:06.379Z,91.38
2022-12-31T07:03:21.901Z,90.86
2022-12-31T07:05:59.730Z,90.55
2022-12-31T07:08:31.556Z,90.26
2022-12-31T07:11:11.195Z,90.01
2022-12-31T07:14:09.472Z,89.41
2022-12-31T07:17:22.471Z,89.30
2022-12-31T07:20:11.905Z,89.11
2022-12-31T07:22:41.576Z,88.51
2022-12-31T07:25:31.376Z,88.37
2022-12-31T07:28:33.829Z,87.61
2022-12-31T07:31:36.100Z,87.07
2022-12-31T07:34:27.008Z,86.17
2022-12-31T07:37:08.437Z,85.74
2022-12-31T07:40:02.752Z,85.35
2022-12-31T07:42:54.103Z,84.85
2022-12-31T07:45:48.573Z,84.45
2022-12-31T07:48:27.107Z,84.41
2022-12-31T07:51:04.780Z,84.14
2022-12-31T07:53:32.210Z,84.13
2022-12-31T07:56:06.997Z,83.57
2022-12-31T07:58:43.468Z,83.07
2022-12-31T08:01:20.597Z,82.61
2022-12-31T08:03:55.784Z,82.85
2022-12-31T08:06:44.199Z,82.68
2022-12-31T08:09:51.131Z,82.85
2022-12-31T08:12:26.718Z,82.94
2022-12-31T08:15:03.148Z,83.05
2022-12-31T08:17:37.378Z,82.72
2022-12-31T08:20:06.818Z,82.06
2022-12-31T08:22:48.948Z,82.09
2022-12-31T08:25:47.236Z,82.32
2022-12-31T08:29:05.836Z,82.24
2022-12-31T08:31:59.411Z,82.90
2022-12-31T08:34:46.988Z,82.77
2022-12-31T08:37:37.949Z,83.27
2022-12-31T08:40:29.490Z,83.14
2022-12-31T08:42:59.334Z,83.25
2022-12-31T08:45:50.893Z,82.86
2022-12-31T08:48:23.868Z,83.14
2022-12-31T08:51:00.083Z,83.03
2022-12-31T08:53:35.164Z,83.07
2022-12-31T08:56:19.330Z,83.37
2022-12-31T08:59:20.754Z,83.05
2022-12-31T09:02:23.015Z,82.09
2022-12-31T09:05:06.997Z,81.59
2022-12-31T09:07:48.139Z,81.17
2022-12-31T09:10:28.109Z,80.68
2022-12-31T09:13:23.708Z,80.11
2022-12-31T09:16:36.741Z,79.60
2022-12-31T09:19:13.322Z,79.54
2022-12-31T09:21:49.242Z,79.26
2022-12-31T09:24:22.789Z,79.30
2022-12-31T09:27:29.058Z,79.53
2022-12-31T09:30:08.819Z,79.38
2022-12-31T09:33:12.412Z,79.74
2022-12-31T09:35:50.732Z,79.73
2022-12-31T09:38:58.244Z,79.98
2022-12-31T09:41:54.915Z,79.75
2022-12-31T09:44:59.911Z,79.96
2022-12-31T09:48:00.761Z,79.42
2022-12-31T09:50:45.506Z,79.63
2022-12-31T09:53:41.706Z,79.13
2022-12-31T09:56:25.917Z,79.27
2022-12-31T09:59:19.623Z,79.26
2022-12-31T10:02:15.698Z,79.43
2022-12-31T10:05:10.761Z,79.37
2022-12-31T10:08:18.747Z,79.11
2022-12-31T10:10:59.553Z,78.99
2022-12-31T10:13:51.756Z,79.04
2022-12-31T10:16:34.132Z,78.69
2022-12-31T10:19:30.158Z,78.43
2022-12-31T10:22:16.996Z,78.34
2022-12-31T10:25:38.340Z,77.80
2022-12-31T10:28:24.264Z,77.25
2022-12-31T10:31:16.479Z,76.80
2022-12-31T10:34:06.701Z,76.85
2022-12-31T10:37:00.327Z,76.69
2022-12-31T10:39:47.695Z,76.49
2022-12-31T10:42:43.068Z,76.13
2022-12-31T10:45:51.854Z,76.19
2022-12-31T10:49:06.735Z,76.10
2022-12-31T10:52:00.840Z,76.58
2022-12-31T10:55:11.589Z,76.60
2022-12-31T10:58:02.007Z,76.02
2022-12-31T11:00:49.261Z,75.94
2022-12-31T11:03:50.616Z,75.88
2022-12-31T11:06:34.893Z,75.75
2022-12-31T11:09:21.178Z,76.21
2022-12-31T11:11:58.280Z,76.35
2022-12-31T11:15:14.504Z,76.77
2022-12-31T11:18:00.481Z,76.31
2022-12-31T11:21:01.305Z,76.73
2022-12-31T11:23:45.317Z,77.36
2022-12-31T11:26:25.264Z,77.09
2022-12-31T11:29:10.687Z,77.62
2022-12-31T11:32:18.222Z,77.42
2022-12-31T11:34:49.811Z,77.22
2022-12-31T11:37:52.619Z,76.94
2022-12-31T11:40:44.722Z,76.84
2022-12-31T11:43:19.991Z,77.21
2022-12-31T11:45:59.209Z,77.20
2022-12-31T11:48:36.687Z,77.29
2022-12-31T11:51:24.684Z,76.99
2022-12-31T11:54:34.343Z,77.62
2022-12-31T11:57:40.383Z,77.51
2022-12-31T12:00:20.543Z,77.43
2022-12-31T12:03:07.491Z,76.19
2022-12-31T12:05:41.836Z,75.22
2022-12-31T12:08:14.770Z,74.22
2022-12-31T12:11:19.012Z,74.42
2022-12-31T12:13:57.521Z,73.54
2022-12-31T12:16:36.366Z,73.64
2022-12-31T12:19:20.966Z,73.07
2022-12-31T12:21:52.798Z,73.11
2022-12-31T12:24:32.650Z,73.36
2022-12-31T12:27:06.317Z,73.13
2022-12-31T12:29:42.401Z,73.48
2022-12-31T12:32:38.791Z,73.66
2022-12-31T12:35:23.070Z,73.83
2022-12-31T12:38:13.930Z,74.03
2022-12-31T12:40:59.681Z,74.17
2022-12-31T12:43:40.385Z,74.29
2022-12-31T12:46:46.063Z,74.02
2022-12-31T12:49:47.008Z,73.37
2022-12-31T12:52:39.011Z,73.62
2022-12-31T12:55:18.408Z,73.54
2022-12-31T12:57:57.434Z,73.77
2022-12-31T13:01:03.611Z,73.88
2022-12-31T13:04:32.319Z,74.05
2022-12-31T13:07:23.008Z,73.76
2022-12-31T13:10:12.737Z,74.01
2022-12-31T13:15:56.246Z,74.58
2022-12-31T13:19:07.328Z,74.95
2022-12-31T13:21:44.097Z,75.75
2022-12-31T13:24:55.033Z,76.17
2022-12-31T13:27:51.981Z,76.61
2022-12-31T13:30:34.935Z,77.15
2022-12-31T13:33:21.865Z,77.58
2022-12-31T13:36:05.718Z,77.37
2022-12-31T13:38:52.068Z,78.16
2022-12-31T13:41:30.003Z,78.31
2022-12-31T13:44:09.426Z,78.65
2022-12-31T13:46:54.572Z,79.27
2022-12-31T13:49:34.081Z,79.29
2022-12-31T13:52:05.123Z,78.75
2022-12-31T13:54:39.680Z,79.07
2022-12-31T13:57:27.208Z,79.26
2022-12-31T14:00:04.532Z,79.44
2022-12-31T14:02:53.953Z,79.83
2022-12-31T14:05:37.174Z,79.75
2022-12-31T14:08:06.536Z,79.59
2022-12-31T14:10:54.801Z,79.53
2022-12-31T14:13:53.071Z,79.62
2022-12-31T14:16:23.107Z,80.18
2022-12-31T14:19:36.509Z,80.23
2022-12-31T14:22:43.971Z,80.71
2022-12-31T14:25:30.476Z,81.24
2022-12-31T14:28:07.346Z,81.77
2022-12-31T14:30:49.534Z,81.91
2022-12-31T14:33:22.739Z,82.45
2022-12-31T14:36:43.364Z,82.98
2022-12-31T14:39:49.744Z,82.63
2022-12-31T14:43:01.863Z,83.22
2022-12-31T14:45:47.815Z,83.20
2022-12-31T14:48:50.600Z,83.61
2022-12-31T14:51:25.235Z,83.83
2022-12-31T14:54:01.702Z,84.16
2022-12-31T14:56:40.938Z,84.68
2022-12-31T14:59:28.997Z,84.99
2022-12-31T15:02:35.046Z,85.43
2022-12-31T15:05:19.092Z,85.63
2022-12-31T15:08:14.522Z,85.76
2022-12-31T15:11:03.792Z,86.23
2022-12-31T15:13:36.637Z,86.47
2022-12-31T15:16:09.961Z,86.61
2022-12-31T15:19:10.510Z,86.94
2022-12-31T15:21:53.449Z,87.06
2022-12-31T15:24:26.555Z,86.94
2022-12-31T15:27:03.642Z,86.84
2022-12-31T15:29:54.100Z,87.04
2022-12-31T15:32:42.338Z,87.09
2022-12-31T15:35:25.674Z,87.44
2022-12-31T15:38:13.893Z,87.14
2022-12-31T15:40:49.588Z,87.12
2022-12-31T15:43:26.380Z,87.40
2022-12-31T15:46:05.298Z,87.51
2022-12-31T15:48:51.658Z,87.83
2022-12-31T15:51:30.860Z,87.97
2022-12-31T15:54:07.495Z,88.07
2022-12-31T15:56:50.292Z,88.11
2022-12-31T15:59:30.847Z,88.48
2022-12-31T16:02:03.786Z,88.70
2022-12-31T16:04:37.347Z,88.83
2022-12-31T16:07:07.534Z,89.13
2022-12-31T16:09:56.661Z,89.47
2022-12-31T16:12:34.359Z,89.61
2022-12-31T16:15:23.489Z,89.51
2022-12-31T16:18:06.224Z,89.78
2022-12-31T16:20:46.083Z,89.70
2022-12-31T16:23:25.507Z,89.91
2022-12-31T16:25:58.447Z,90.22
2022-12-31T16:28:48.353Z,90.31
2022-12-31T16:31:31.470Z,90.21
2022-12-31T16:34:13.821Z,90.29
2022-12-31T16:36:43.994Z,90.21
2022-12-31T16:39:33.186Z,90.39
2022-12-31T16:42:21.079Z,90.26
2022-12-31T16:45:08.815Z,90.20
2022-12-31T16:47:53.317Z,90.35
2022-12-31T16:50:29.534Z,90.66
2022-12-31T16:53:13.030Z,90.86
2022-12-31T16:56:14.299Z,90.88
2022-12-31T16:58:47.590Z,91.16
2022-12-31T17:01:19.938Z,90.98
2022-12-31T17:04:13.493Z,90.74
2022-12-31T17:06:49.295Z,90.36
2022-12-31T17:09:31.203Z,91.39
2022-12-31T17:12:19.078Z,91.08
2022-12-31T17:14:53.046Z,90.66
2022-12-31T17:17:29.123Z,90.82
2022-12-31T17:20:02.701Z,91.05
2022-12-31T17:22:49.499Z,91.31
2022-12-31T17:25:25.355Z,91.28
2022-12-31T17:27:59.137Z,91.65
2022-12-31T17:30:35.395Z,91.85
2022-12-31T17:33:27.161Z,92.12
2022-12-31T17:36:20.947Z,92.45
2022-12-31T17:39:22.675Z,92.06
2022-12-31T17:41:58.172Z,91.99
2022-12-31T17:44:39.315Z,92.17
2022-12-31T17:47:16.543Z,92.17
2022-12-31T17:49:48.744Z,92.08
2022-12-31T17:52:29.747Z,92.59
2022-12-31T17:55:00.638Z,92.08
2022-12-31T17:57:33.258Z,92.12
2022-12-31T18:02:50.460Z,91.98
2022-12-31T18:05:26.456Z,92.01
2022-12-31T18:08:04.641Z,92.06
2022-12-31T18:10:36.624Z,92.15
2022-12-31T18:13:07.099Z,91.88
2022-12-31T18:15:40.772Z,91.78
2022-12-31T18:18:31.717Z,91.58
2022-12-31T18:21:23.348Z,91.73
2022-12-31T18:26:34.427Z,91.48
2022-12-31T18:29:22.057Z,91.63
2022-12-31T18:31:51.587Z,91.64
2022-12-31T18:34:37.743Z,91.66
2022-12-31T18:37:21.280Z,91.84
2022-12-31T18:39:53.206Z,92.23
2022-12-31T18:42:34.215Z,92.87
2022-12-31T18:45:04.525Z,92.44
2022-12-31T18:47:37.969Z,92.10
2022-12-31T18:50:18.378Z,92.31
2022-12-31T18:53:08.906Z,92.25
2022-12-31T18:56:04.069Z,92.31
2022-12-31T18:58:43.246Z,92.62
2022-12-31T19:01:40.991Z,92.52
2022-12-31T19:04:27.877Z,92.65
2022-12-31T19:06:58.261Z,92.70
2022-12-31T19:09:51.491Z,92.96
2022-12-31T19:12:24.685Z,92.84
2022-12-31T19:14:55.995Z,92.81
2022-12-31T19:17:36.147Z,92.52
2022-12-31T19:20:12.581Z,92.81
2022-12-31T19:22:44.069Z,92.69
2022-12-31T19:25:20.875Z,92.43
2022-12-31T19:27:53.882Z,92.16
2022-12-31T19:43:57.713Z,92.64
2022-12-31T19:46:40.607Z,92.66
2022-12-31T19:49:26.511Z,92.70
2022-12-31T19:51:58.667Z,92.59
2022-12-31T19:54:34.956Z,92.66
2022-12-31T19:57:02.254Z,92.49
2022-12-31T19:59:41.087Z,92.37
2022-12-31T20:02:22.898Z,92.42
2022-12-31T20:04:52.417Z,92.19
2022-12-31T20:07:38.006Z,92.49
2022-12-31T20:10:08.634Z,92.67
2022-12-31T20:12:44.075Z,92.32
2022-12-31T20:15:17.275Z,92.26
2022-12-31T20:17:44.425Z,92.54
2022-12-31T20:20:19.357Z,92.75
2022-12-31T20:22:53.062Z,92.87
2022-12-31T20:25:26.606Z,92.66
2022-12-31T20:27:59.243Z,91.90
2022-12-31T20:30:29.083Z,92.26
2022-12-31T20:33:00.377Z,91.85
2022-12-31T20:35:33.208Z,91.73
2022-12-31T20:38:05.552Z,91.67
2022-12-31T20:40:35.318Z,91.96
2022-12-31T20:43:08.734Z,92.02
2022-12-31T20:45:42.769Z,92.14
2022-12-31T20:48:14.456Z,92.17
2022-12-31T20:50:45.528Z,92.45
2022-12-31T20:53:17.634Z,92.51
2022-12-31T20:56:18.652Z,92.45
2022-12-31T20:58:56.263Z,92.45
2022-12-31T21:01:41.799Z,92.24
2022-12-31T21:04:24.569Z,92.32
2022-12-31T21:07:03.044Z,92.12
2022-12-31T21:09:38.518Z,92.11
2022-12-31T21:12:24.535Z,92.01
2022-12-31T21:15:02.553Z,91.97
2022-12-31T21:17:32.516Z,91.90
2022-12-31T21:20:16.549Z,91.97
2022-12-31T21:22:46.084Z,92.22
2022-12-31T21:25:18.835Z,92.24
2022-12-31T21:28:01.372Z,92.36
2022-12-31T21:30:32.982Z,92.10
2022-12-31T21:33:06.626Z,91.80
2022-12-31T21:35:51.861Z,91.41
2022-12-31T21:38:23.358Z,91.26
2022-12-31T21:40:50.602Z,91.20
2022-12-31T21:43:39.164Z,90.75
2022-12-31T21:46:09.775Z,90.84
2022-12-31T21:48:44.089Z,90.85
2022-12-31T21:51:32.077Z,90.78
2022-12-31T21:54:07.777Z,90.70
2022-12-31T21:56:39.527Z,90.76
2022-12-31T21:59:30.926Z,90.65
2022-12-31T22:02:16.764Z,90.82
2022-12-31T22:05:17.312Z,90.70
2022-12-31T22:07:43.860Z,90.77
2022-12-31T22:10:28.020Z,89.71
2022-12-31T22:12:58.187Z,89.20
2022-12-31T22:15:37.814Z,89.06
2022-12-31T22:18:10.346Z,89.81
2022-12-31T22:20:46.037Z,90.36
2022-12-31T22:23:21.018Z,90.87
2022-12-31T22:25:54.440Z,91.07
2022-12-31T22:28:41.379Z,91.08
2022-12-31T22:31:25.436Z,90.84
2022-12-31T22:33:53.128Z,91.27
2022-12-31T22:36:27.101Z,91.37
2022-12-31T22:38:58.150Z,91.23
2022-12-31T22:41:27.916Z,91.64
2022-12-31T22:44:04.792Z,91.67
2022-12-31T22:46:37.310Z,91.83
2022-12-31T22:49:06.853Z,91.87
2022-12-31T22:51:56.708Z,92.10
2022-12-31T22:54:29.045Z,92.16
2022-12-31T22:57:03.098Z,92.49
2022-12-31T22:59:47.611Z,92.55
2022-12-31T23:02:22.581Z,92.64
2022-12-31T23:04:52.995Z,92.52
2022-12-31T23:07:43.586Z,92.47
2022-12-31T23:10:34.322Z,92.77
2022-12-31T23:13:23.140Z,93.09
2022-12-31T23:16:17.503Z,93.28
2022-12-31T23:19:06.505Z,92.43
2022-12-31T23:22:08.215Z,92.52
2022-12-31T23:24:38.383Z,92.44
2022-12-31T23:27:11.385Z,92.66
2022-12-31T23:29:47.151Z,92.44
2022-12-31T23:32:24.556Z,92.10
2022-12-31T23:34:56.487Z,92.02
2022-12-31T23:37:29.035Z,92.08
2022-12-31T23:39:58.681Z,91.99
2022-12-31T23:42:31.766Z,92.16
2022-12-31T23:45:05.135Z,91.93
2022-12-31T23:47:38.918Z,91.52
2022-12-31T23:50:06.672Z,91.37
2022-12-31T23:52:36.764Z,90.99
2022-12-31T23:55:12.575Z,91.25
2022-12-31T23:57:46.271Z,91.13
